Time;durP1;ratioP1;P1;durP2;ratioP2;P2;SDS_P1;SDS_P2;PMS_P1;PMS_P2;Temp;Humidity;BMP_temperature;BMP_pressure;BME280_temperature;BME280_humidity;BME280_pressure;Samples;Min_cycle;Max_cycle;Signal;HPM_P1;HPM_P2
2022/04/10 00:01:14;;;;;;;23.42;3.90;;;2.40;99.90;;;;;;4995558;28;20459;-72
2022/04/10 00:03:39;;;;;;;17.27;3.58;;;2.30;99.90;;;;;;4995195;28;20343;-73
2022/04/10 00:06:05;;;;;;;19.73;3.58;;;2.30;99.90;;;;;;4995015;28;20517;-71
2022/04/10 00:08:30;;;;;;;14.07;3.30;;;2.30;99.90;;;;;;4978300;28;20073;-72
2022/04/10 00:10:56;;;;;;;23.85;4.28;;;2.20;99.90;;;;;;4978712;28;20370;-71
2022/04/10 00:13:22;;;;;;;17.45;3.67;;;2.20;99.90;;;;;;4995484;28;20090;-72
2022/04/10 00:15:47;;;;;;;18.17;3.42;;;2.20;99.90;;;;;;4995238;28;20045;-71
2022/04/10 00:18:13;;;;;;;27.45;4.30;;;2.20;99.90;;;;;;4994640;28;20031;-71
2022/04/10 00:20:39;;;;;;;16.30;4.32;;;2.10;99.90;;;;;;4995115;28;20058;-72
2022/04/10 00:23:05;;;;;;;21.17;3.70;;;2.10;99.90;;;;;;4994962;28;20046;-72
2022/04/10 00:25:31;;;;;;;16.23;3.65;;;2.10;99.90;;;;;;4995214;28;20093;-71
2022/04/10 00:27:57;;;;;;;15.45;3.25;;;2.10;99.90;;;;;;4995138;28;20050;-71
2022/04/10 00:30:23;;;;;;;18.00;3.42;;;2.10;99.90;;;;;;4995336;28;20133;-72
2022/04/10 00:32:49;;;;;;;20.05;3.22;;;2.10;99.90;;;;;;4977941;28;20062;-71
2022/04/10 00:35:14;;;;;;;17.73;3.92;;;2.10;99.90;;;;;;4978334;28;20125;-70
2022/04/10 00:37:40;;;;;;;22.13;3.38;;;2.10;99.90;;;;;;4995143;28;20125;-71
2022/04/10 00:40:08;;;;;;;15.57;3.33;;;2.10;99.90;;;;;;4994767;28;20117;-71
2022/04/10 00:42:36;;;;;;;23.08;4.05;;;2.10;99.90;;;;;;4994535;28;20134;-72
2022/04/10 00:45:03;;;;;;;22.95;3.72;;;2.10;99.90;;;;;;4977810;28;20537;-71
2022/04/10 00:47:29;;;;;;;16.50;3.45;;;2.10;99.90;;;;;;4994480;28;20082;-72
2022/04/10 00:49:58;;;;;;;19.75;3.78;;;2.10;99.90;;;;;;4996472;28;20120;-70
2022/04/10 00:52:25;;;;;;;18.17;3.58;;;2.10;99.90;;;;;;4981412;28;20073;-72
2022/04/10 00:54:51;;;;;;;13.18;3.28;;;2.10;99.90;;;;;;4998476;28;20053;-71
2022/04/10 00:57:18;;;;;;;18.98;3.95;;;2.10;99.90;;;;;;4998327;28;20038;-71
2022/04/10 00:59:43;;;;;;;25.80;4.38;;;2.10;99.90;;;;;;4997791;28;20089;-71
2022/04/10 01:02:09;;;;;;;17.42;3.63;;;2.20;99.90;;;;;;4998234;28;20046;-72
2022/04/10 01:04:36;;;;;;;16.65;3.50;;;2.20;99.90;;;;;;4998039;28;20038;-71
2022/04/10 01:07:04;;;;;;;11.80;3.20;;;2.20;99.90;;;;;;4998120;28;20100;-71
2022/04/10 01:09:31;;;;;;;16.25;3.75;;;2.20;99.90;;;;;;4998074;28;20046;-71
2022/04/10 01:11:58;;;;;;;15.02;3.92;;;2.20;99.90;;;;;;4998068;28;20132;-72
2022/04/10 01:14:23;;;;;;;16.20;3.60;;;2.20;99.90;;;;;;4998020;28;20082;-71
2022/04/10 01:16:49;;;;;;;21.67;3.58;;;2.30;99.90;;;;;;4979917;28;20081;-72
2022/04/10 01:19:19;;;;;;;21.17;3.53;;;2.20;99.90;;;;;;4981150;28;20076;-72
2022/04/10 01:21:46;;;;;;;23.85;4.45;;;2.20;99.90;;;;;;4931644;28;20054;-70
2022/04/10 01:24:13;;;;;;;27.13;3.65;;;2.20;99.90;;;;;;4947107;28;20050;-72
2022/04/10 01:26:39;;;;;;;18.73;3.67;;;2.10;99.90;;;;;;4997755;28;20080;-71
2022/04/10 01:29:07;;;;;;;14.20;3.72;;;2.10;99.90;;;;;;4964587;28;20039;-71
2022/04/10 01:31:37;;;;;;;21.20;4.22;;;2.20;99.90;;;;;;4997820;28;20065;-72
2022/04/10 01:34:06;;;;;;;15.15;3.33;;;2.10;99.90;;;;;;4997576;28;20488;-73
2022/04/10 01:36:32;;;;;;;16.38;3.45;;;2.00;99.90;;;;;;4997694;28;20050;-71
2022/04/10 01:38:59;;;;;;;17.40;3.42;;;2.00;99.90;;;;;;4980092;28;20104;-71
2022/04/10 01:41:27;;;;;;;13.05;3.65;;;1.90;99.90;;;;;;4997603;28;20402;-70
2022/04/10 01:43:55;;;;;;;18.80;3.30;;;1.90;99.90;;;;;;4997351;28;20382;-71
2022/04/10 01:46:22;;;;;;;21.70;4.13;;;1.90;99.90;;;;;;4996396;28;20065;-71
2022/04/10 01:48:48;;;;;;;24.42;3.95;;;1.90;99.90;;;;;;4997493;28;20360;-71
2022/04/10 01:51:15;;;;;;;21.60;3.95;;;1.90;99.90;;;;;;4997638;28;20141;-71
2022/04/10 01:53:41;;;;;;;26.42;3.80;;;1.80;99.90;;;;;;4980094;28;20117;-71
2022/04/10 01:56:08;;;;;;;20.13;4.10;;;1.80;99.90;;;;;;4997235;28;20034;-71
2022/04/10 01:58:35;;;;;;;22.25;3.50;;;1.80;99.90;;;;;;4979787;28;20077;-72
2022/04/10 02:01:02;;;;;;;15.52;3.42;;;1.80;99.90;;;;;;4996171;28;20042;-73
2022/04/10 02:03:28;;;;;;;19.50;3.33;;;1.80;99.90;;;;;;4997054;28;20093;-71
2022/04/10 02:05:55;;;;;;;20.48;3.85;;;1.70;99.90;;;;;;4997155;28;20042;-71
2022/04/10 02:08:21;;;;;;;17.15;3.42;;;1.70;99.90;;;;;;4997001;28;20459;-71
2022/04/10 02:10:47;;;;;;;19.33;3.53;;;1.70;99.90;;;;;;4996984;28;20050;-72
2022/04/10 02:13:12;;;;;;;18.95;3.58;;;1.70;99.90;;;;;;4980478;28;20359;-71
2022/04/10 02:15:38;;;;;;;16.25;3.20;;;1.60;99.90;;;;;;4979082;28;20043;-72
2022/04/10 02:18:05;;;;;;;16.25;3.33;;;1.60;99.90;;;;;;4979384;28;20443;-71
2022/04/10 02:20:31;;;;;;;15.63;3.67;;;1.60;99.90;;;;;;4996857;28;20387;-71
2022/04/10 02:22:57;;;;;;;15.82;3.33;;;1.60;99.90;;;;;;4963204;28;20054;-71
2022/04/10 02:25:22;;;;;;;18.55;3.50;;;1.60;99.90;;;;;;4996278;28;20054;-72
2022/04/10 02:27:48;;;;;;;24.15;3.53;;;1.60;99.90;;;;;;4976598;28;20475;-72
2022/04/10 02:30:13;;;;;;;15.88;3.55;;;1.60;99.90;;;;;;4996790;28;20062;-71
2022/04/10 02:32:40;;;;;;;21.02;4.70;;;1.60;99.90;;;;;;4996606;28;20057;-71
2022/04/10 02:35:07;;;;;;;16.63;3.85;;;1.60;99.90;;;;;;4996457;28;20050;-71
2022/04/10 02:37:32;;;;;;;17.95;3.47;;;1.50;99.90;;;;;;4996590;28;20054;-71
2022/04/10 02:39:58;;;;;;;17.17;3.88;;;1.50;99.90;;;;;;4979253;28;20104;-71
2022/04/10 02:42:23;;;;;;;17.15;3.95;;;1.50;99.90;;;;;;4979480;28;20058;-70
2022/04/10 02:44:49;;;;;;;16.75;3.25;;;1.50;99.90;;;;;;4996652;28;20085;-72
2022/04/10 02:47:14;;;;;;;15.07;4.05;;;1.50;99.90;;;;;;4977867;28;20360;-72
2022/04/10 02:49:40;;;;;;;14.80;3.42;;;1.50;99.90;;;;;;4978898;28;20104;-70
2022/04/10 02:52:06;;;;;;;21.52;3.20;;;1.50;99.90;;;;;;4962860;28;20054;-72
2022/04/10 02:54:31;;;;;;;18.42;3.38;;;1.50;99.90;;;;;;4978804;28;20050;-72
2022/04/10 02:56:57;;;;;;;20.77;3.60;;;1.50;99.90;;;;;;4996269;28;20410;-71
2022/04/10 02:59:22;;;;;;;18.88;3.35;;;1.60;99.90;;;;;;4996037;28;20430;-71
2022/04/10 03:01:50;;;;;;;20.08;3.88;;;1.60;99.90;;;;;;4996315;28;20394;-72
2022/04/10 03:04:16;;;;;;;19.50;3.70;;;1.60;99.90;;;;;;4996183;28;20054;-72
2022/04/10 03:06:41;;;;;;;14.15;3.25;;;1.60;99.90;;;;;;4996008;28;20405;-72
2022/04/10 03:09:07;;;;;;;14.68;3.25;;;1.60;99.90;;;;;;4995985;28;20050;-71
2022/04/10 03:11:33;;;;;;;19.40;3.70;;;1.60;99.90;;;;;;4978667;28;20125;-71
2022/04/10 03:13:59;;;;;;;13.93;3.03;;;1.70;99.90;;;;;;4979017;28;20081;-71
2022/04/10 03:16:24;;;;;;;13.35;3.05;;;1.80;99.90;;;;;;4985279;28;20047;-71
2022/04/10 03:18:51;;;;;;;10.68;2.65;;;2.00;99.90;;;;;;4976226;28;20043;-71
2022/04/10 03:21:17;;;;;;;12.85;2.83;;;2.10;99.90;;;;;;4976404;28;20035;-71
2022/04/10 03:23:43;;;;;;;9.68;2.55;;;2.20;99.90;;;;;;4976488;28;20112;-72
2022/04/10 03:26:09;;;;;;;15.32;2.60;;;2.20;99.90;;;;;;4976156;28;20126;-72
2022/04/10 03:28:34;;;;;;;16.35;2.47;;;2.20;99.90;;;;;;4976195;28;20065;-71
2022/04/10 03:31:00;;;;;;;8.00;2.22;;;2.20;99.90;;;;;;4959059;28;20061;-71
2022/04/10 03:33:25;;;;;;;13.27;2.65;;;2.20;99.90;;;;;;4976166;28;20042;-73
2022/04/10 03:35:53;;;;;;;14.27;3.17;;;2.20;99.90;;;;;;4976264;28;20047;-70
2022/04/10 03:38:19;;;;;;;15.38;2.90;;;2.10;99.90;;;;;;4975169;28;20097;-73
2022/04/10 03:40:45;;;;;;;13.25;2.90;;;2.10;99.90;;;;;;4976061;28;20042;-71
2022/04/10 03:43:11;;;;;;;12.40;3.03;;;2.10;99.90;;;;;;4975947;28;20053;-72
2022/04/10 03:45:40;;;;;;;13.27;2.72;;;2.10;99.90;;;;;;4979683;28;20458;-71
2022/04/10 03:48:06;;;;;;;10.95;2.53;;;2.10;99.90;;;;;;4986920;28;20051;-73
2022/04/10 03:50:33;;;;;;;15.20;2.83;;;2.10;99.90;;;;;;4976042;28;20113;-71
2022/04/10 03:53:00;;;;;;;9.93;2.42;;;2.20;99.90;;;;;;4975666;28;20046;-71
2022/04/10 03:55:26;;;;;;;8.77;2.17;;;2.30;99.90;;;;;;4975942;28;20108;-71
2022/04/10 03:57:51;;;;;;;10.68;2.33;;;2.30;99.90;;;;;;4976018;28;20047;-71
2022/04/10 04:00:18;;;;;;;9.25;2.40;;;2.40;99.90;;;;;;4976252;28;20049;-73
2022/04/10 04:02:44;;;;;;;13.07;2.92;;;2.70;99.90;;;;;;4976211;28;20046;-73
2022/04/10 04:05:10;;;;;;;13.02;2.50;;;2.50;99.90;;;;;;4975786;28;20097;-73
2022/04/10 04:07:36;;;;;;;7.57;2.22;;;2.60;99.90;;;;;;4959047;28;20451;-72
2022/04/10 04:10:05;;;;;;;10.57;2.13;;;2.60;99.90;;;;;;4942641;28;20119;-71
2022/04/10 04:12:33;;;;;;;12.70;2.33;;;2.60;99.90;;;;;;4976093;28;20082;-72
2022/04/10 04:14:58;;;;;;;9.38;2.15;;;2.60;99.90;;;;;;4975300;28;20043;-72
2022/04/10 04:17:24;;;;;;;5.97;1.90;;;2.60;99.90;;;;;;4959257;28;20047;-71
2022/04/10 04:19:51;;;;;;;9.95;2.05;;;2.60;99.90;;;;;;4975706;28;20038;-71
2022/04/10 04:22:17;;;;;;;9.13;2.20;;;2.50;99.90;;;;;;4958231;28;20066;-71
2022/04/10 04:24:43;;;;;;;11.10;2.25;;;2.50;99.90;;;;;;4960069;28;20141;-71
2022/04/10 04:27:09;;;;;;;10.10;2.35;;;2.40;99.90;;;;;;4979479;28;20046;-71
2022/04/10 04:29:34;;;;;;;7.18;2.10;;;2.40;99.90;;;;;;4979198;28;20089;-72
2022/04/10 04:32:00;;;;;;;9.80;2.20;;;2.40;99.90;;;;;;4979548;28;20379;-72
2022/04/10 04:34:26;;;;;;;11.40;1.98;;;2.40;99.90;;;;;;4962269;28;20050;-71
2022/04/10 04:36:52;;;;;;;7.38;1.90;;;2.40;99.90;;;;;;4978921;28;20530;-72
2022/04/10 04:39:18;;;;;;;7.82;2.35;;;2.40;99.90;;;;;;4978895;28;20078;-71
2022/04/10 04:41:43;;;;;;;6.47;1.65;;;2.30;99.90;;;;;;4978977;28;20085;-72
2022/04/10 04:44:09;;;;;;;11.57;1.88;;;2.30;99.90;;;;;;4976361;28;20066;-72
2022/04/10 04:46:35;;;;;;;10.35;2.90;;;3.30;99.90;;;;;;4978086;28;20043;-73
2022/04/10 04:49:01;;;;;;;10.25;1.92;;;2.30;99.90;;;;;;4991192;28;20047;-70
2022/04/10 04:51:27;;;;;;;7.70;2.00;;;2.20;99.90;;;;;;4981139;28;20058;-71
2022/04/10 04:53:53;;;;;;;9.68;2.28;;;2.20;99.90;;;;;;4981383;28;20061;-71
2022/04/10 04:56:19;;;;;;;11.32;2.40;;;2.20;99.90;;;;;;4998162;28;20042;-72
2022/04/10 04:58:44;;;;;;;11.13;1.80;;;2.20;99.90;;;;;;4995013;28;20039;-71
2022/04/10 05:01:10;;;;;;;7.03;1.90;;;2.20;99.90;;;;;;4981072;28;20054;-70
2022/04/10 05:03:35;;;;;;;7.57;1.88;;;2.20;99.90;;;;;;4998150;28;20050;-72
2022/04/10 05:06:01;;;;;;;10.15;2.00;;;2.30;99.90;;;;;;4997974;28;20085;-71
2022/04/10 05:08:26;;;;;;;11.55;2.20;;;2.10;99.90;;;;;;4980705;28;20074;-72
2022/04/10 05:10:52;;;;;;;7.45;1.83;;;2.10;99.90;;;;;;4998288;28;20050;-71
2022/04/10 05:13:18;;;;;;;9.38;2.67;;;2.20;99.90;;;;;;4964560;28;20051;-73
2022/04/10 05:15:44;;;;;;;8.25;2.13;;;2.30;99.90;;;;;;4971399;28;20042;-71
2022/04/10 05:18:09;;;;;;;10.65;2.20;;;2.30;99.90;;;;;;4978281;28;20105;-73
2022/04/10 05:20:35;;;;;;;12.82;2.10;;;2.40;99.90;;;;;;4978621;28;20137;-71
2022/04/10 05:23:01;;;;;;;7.68;1.90;;;2.40;99.90;;;;;;4978146;28;20055;-71
2022/04/10 05:25:26;;;;;;;8.63;1.83;;;2.50;99.90;;;;;;4961091;28;20066;-72
2022/04/10 05:27:52;;;;;;;8.25;1.90;;;2.50;99.90;;;;;;4978452;28;20089;-72
2022/04/10 05:30:18;;;;;;;9.50;1.92;;;2.50;99.90;;;;;;4978458;28;20351;-71
2022/04/10 05:32:44;;;;;;;19.33;2.30;;;2.50;99.90;;;;;;4979109;28;20094;-72
2022/04/10 05:35:12;;;;;;;6.80;1.88;;;3.10;99.90;;;;;;4979818;28;20522;-71
2022/04/10 05:37:38;;;;;;;12.27;3.05;;;2.60;99.90;;;;;;4960476;28;20459;-73
2022/04/10 05:40:05;;;;;;;12.27;2.30;;;2.60;99.90;;;;;;4961144;28;20030;-69
2022/04/10 05:42:30;;;;;;;8.73;2.47;;;2.60;99.90;;;;;;4979835;28;20067;-70
2022/04/10 05:45:03;;;;;;;8.70;3.15;;;2.60;99.90;;;;;;4967848;28;20046;-70
2022/04/10 05:47:29;;;;;;;11.50;2.42;;;2.60;99.90;;;;;;4979880;28;20042;-71
2022/04/10 05:49:55;;;;;;;11.13;2.53;;;2.60;99.90;;;;;;4997431;28;20061;-71
2022/04/10 05:52:20;;;;;;;10.38;2.92;;;2.70;99.90;;;;;;4996510;28;20045;-72
2022/04/10 05:54:46;;;;;;;8.60;2.45;;;2.80;99.90;;;;;;4981922;28;20141;-72
2022/04/10 05:57:12;;;;;;;9.75;2.58;;;3.00;99.90;;;;;;4985480;28;20035;-70
2022/04/10 05:59:37;;;;;;;9.80;2.28;;;3.20;99.90;;;;;;4971541;28;20138;-72
2022/04/10 06:02:03;;;;;;;8.90;2.08;;;3.30;99.90;;;;;;4982267;28;20070;-71
2022/04/10 06:04:28;;;;;;;6.38;1.70;;;3.40;99.90;;;;;;4981576;28;20052;-72
2022/04/10 06:06:54;;;;;;;11.43;2.38;;;3.80;99.90;;;;;;4977321;28;20086;-72
2022/04/10 06:09:19;;;;;;;9.48;2.20;;;4.20;99.90;;;;;;4983661;28;20542;-71
2022/04/10 06:11:45;;;;;;;8.82;2.15;;;4.60;99.90;;;;;;4975053;28;20038;-71
2022/04/10 06:14:10;;;;;;;7.45;2.58;;;4.70;99.90;;;;;;4970521;28;20042;-71
2022/04/10 06:16:36;;;;;;;9.88;2.60;;;4.70;99.90;;;;;;4962158;28;21689;-71
2022/04/10 06:19:02;;;;;;;10.80;1.98;;;4.40;99.90;;;;;;4977572;28;20502;-72
2022/04/10 06:21:28;;;;;;;8.77;2.35;;;4.40;99.90;;;;;;4977540;28;20054;-73
2022/04/10 06:23:53;;;;;;;5.97;2.20;;;4.70;99.90;;;;;;4982521;28;20050;-72
2022/04/10 06:26:19;;;;;;;11.00;2.10;;;4.80;99.90;;;;;;4993236;28;20078;-72
2022/04/10 06:28:44;;;;;;;9.02;1.90;;;4.80;99.90;;;;;;4996529;28;20042;-73
2022/04/10 06:31:10;;;;;;;6.07;2.05;;;4.70;99.90;;;;;;4973258;28;20058;-72
2022/04/10 06:33:35;;;;;;;7.18;2.17;;;4.70;99.90;;;;;;4988868;28;20042;-72
2022/04/10 06:36:01;;;;;;;6.45;1.92;;;4.60;99.90;;;;;;4996368;28;20066;-73
2022/04/10 06:38:27;;;;;;;10.63;3.22;;;4.50;99.90;;;;;;4986239;28;20050;-72
2022/04/10 06:40:52;;;;;;;7.78;2.15;;;4.80;99.90;;;;;;4984434;28;20039;-73
2022/04/10 06:43:19;;;;;;;9.75;1.98;;;4.50;99.90;;;;;;4992067;28;20038;-71
2022/04/10 06:45:46;;;;;;;7.63;2.10;;;4.50;99.90;;;;;;4996063;28;20042;-72
2022/04/10 06:48:11;;;;;;;7.78;1.90;;;4.60;99.90;;;;;;4962842;28;20137;-72
2022/04/10 06:50:37;;;;;;;16.92;3.22;;;4.50;99.90;;;;;;4976819;28;20046;-72
2022/04/10 06:53:02;;;;;;;7.80;2.20;;;4.50;99.90;;;;;;4975905;28;20101;-73
2022/04/10 06:55:28;;;;;;;11.15;2.42;;;4.40;99.90;;;;;;4975513;28;20483;-73
2022/04/10 06:57:54;;;;;;;12.52;2.55;;;4.30;99.90;;;;;;4976991;28;20463;-72
2022/04/10 07:00:20;;;;;;;9.38;2.20;;;4.10;99.90;;;;;;4976007;28;20080;-72
2022/04/10 07:02:45;;;;;;;8.63;2.40;;;4.00;99.90;;;;;;4976584;28;20043;-72
2022/04/10 07:05:11;;;;;;;9.00;2.40;;;3.90;99.90;;;;;;4958363;28;20065;-72
2022/04/10 07:07:36;;;;;;;7.10;2.10;;;3.90;99.90;;;;;;4975572;28;20356;-73
2022/04/10 07:10:02;;;;;;;8.68;2.17;;;3.90;99.90;;;;;;4958458;28;20043;-73
2022/04/10 07:12:28;;;;;;;8.77;2.80;;;4.00;99.90;;;;;;4975349;28;20463;-72
2022/04/10 07:14:53;;;;;;;7.53;2.20;;;4.10;99.90;;;;;;4958436;28;20050;-72
2022/04/10 07:17:19;;;;;;;9.27;2.22;;;4.20;99.90;;;;;;4975681;28;20043;-72
2022/04/10 07:19:45;;;;;;;5.47;2.42;;;4.30;99.90;;;;;;4975571;28;20050;-73
2022/04/10 07:24:55;;;;;;;7.00;2.17;;;4.60;99.90;;;;;;4974419;28;20062;-72
2022/04/10 07:27:24;;;;;;;10.15;2.17;;;4.90;99.90;;;;;;4976397;28;20058;-73
2022/04/10 07:29:49;;;;;;;5.75;1.88;;;5.20;99.90;;;;;;4959464;28;20447;-72
2022/04/10 07:32:15;;;;;;;7.53;2.10;;;5.40;99.90;;;;;;4976248;28;20109;-73
2022/04/10 07:34:41;;;;;;;8.05;2.40;;;5.50;99.90;;;;;;4975697;28;20086;-72
2022/04/10 07:37:06;;;;;;;7.90;2.20;;;6.20;99.90;;;;;;4976128;28;20054;-72
2022/04/10 07:39:32;;;;;;;9.40;2.50;;;6.20;99.90;;;;;;4975651;28;20074;-72
2022/04/10 07:41:57;;;;;;;14.48;2.47;;;5.70;99.90;;;;;;4975574;28;20117;-72
2022/04/10 07:44:23;;;;;;;11.60;2.45;;;5.90;99.90;;;;;;4958901;28;20434;-72
2022/04/10 07:49:33;;;;;;;13.15;2.75;;;6.20;99.90;;;;;;4992025;28;20062;-72
2022/04/10 07:51:59;;;;;;;6.72;2.33;;;6.30;99.90;;;;;;4975441;28;20129;-72
2022/04/10 07:54:24;;;;;;;11.20;2.10;;;6.30;99.90;;;;;;4990076;28;20050;-72
2022/04/10 07:56:50;;;;;;;9.23;2.20;;;6.20;99.90;;;;;;4975738;28;20054;-72
2022/04/10 07:59:16;;;;;;;8.10;2.15;;;6.30;99.90;;;;;;4955650;28;20043;-73
2022/04/10 08:01:41;;;;;;;9.25;2.20;;;6.30;99.90;;;;;;4943691;29;20089;-72
2022/04/10 08:04:07;;;;;;;11.07;2.63;;;6.30;99.90;;;;;;4957410;29;20392;-73
2022/04/10 08:06:32;;;;;;;10.90;2.15;;;6.40;99.90;;;;;;4977124;28;20474;-72
2022/04/10 08:08:58;;;;;;;10.23;1.85;;;6.40;99.90;;;;;;4993277;28;20062;-73
2022/04/10 08:11:23;;;;;;;11.90;2.33;;;6.50;99.90;;;;;;4998729;28;20086;-72
2022/04/10 08:13:49;;;;;;;10.73;2.28;;;6.50;99.90;;;;;;4984592;28;20049;-73
2022/04/10 08:16:15;;;;;;;7.45;2.15;;;6.50;99.90;;;;;;4980066;28;20054;-72
2022/04/10 08:18:41;;;;;;;8.00;2.05;;;6.60;99.90;;;;;;4979785;28;20051;-72
2022/04/10 08:21:07;;;;;;;11.93;2.38;;;6.60;99.90;;;;;;4962919;28;20050;-71
2022/04/10 08:23:33;;;;;;;12.57;2.38;;;6.70;99.90;;;;;;4953162;28;20057;-72
2022/04/10 08:25:58;;;;;;;10.13;1.80;;;6.70;99.90;;;;;;4985654;28;20046;-72
2022/04/10 08:28:24;;;;;;;11.52;2.00;;;6.80;99.90;;;;;;4978853;28;20489;-73
2022/04/10 08:30:51;;;;;;;12.60;2.10;;;6.80;99.90;;;;;;4979197;28;20042;-72
2022/04/10 08:33:17;;;;;;;6.65;1.90;;;7.00;99.90;;;;;;4978836;28;20133;-73
2022/04/10 08:35:42;;;;;;;9.30;2.00;;;7.30;99.90;;;;;;4979181;28;20127;-73
2022/04/10 08:38:08;;;;;;;7.82;2.00;;;7.50;99.90;;;;;;4978663;28;20047;-72
2022/04/10 08:40:34;;;;;;;11.18;2.17;;;7.70;99.90;;;;;;4980659;28;20066;-72
2022/04/10 08:43:02;;;;;;;9.10;2.25;;;7.90;99.90;;;;;;4981381;28;20062;-72
2022/04/10 08:45:28;;;;;;;12.32;2.28;;;8.00;99.90;;;;;;4984967;28;20047;-72
2022/04/10 08:47:55;;;;;;;9.23;2.40;;;8.40;99.90;;;;;;4979165;28;20062;-72
2022/04/10 08:50:23;;;;;;;7.80;1.98;;;8.50;99.90;;;;;;4978786;28;20420;-73
2022/04/10 08:52:52;;;;;;;9.43;2.10;;;8.70;99.90;;;;;;4945704;28;20141;-72
2022/04/10 08:55:19;;;;;;;10.68;2.38;;;8.80;99.90;;;;;;4977144;28;20050;-72
2022/04/10 08:57:44;;;;;;;11.75;2.20;;;8.80;99.90;;;;;;4963711;28;20483;-71
2022/04/10 09:00:11;;;;;;;12.23;2.05;;;8.50;99.90;;;;;;4979222;28;20046;-72
2022/04/10 09:02:50;;;;;;;12.15;1.95;;;8.30;99.90;;;;;;4978553;28;20058;-73
2022/04/10 09:05:21;;;;;;;7.63;1.83;;;8.20;99.90;;;;;;4977542;28;20097;-73
2022/04/10 09:08:06;;;;;;;20.13;2.30;;;8.30;99.90;;;;;;4978337;28;20047;-71
2022/04/10 09:10:52;;;;;;;7.88;2.10;;;8.40;99.90;;;;;;4977952;28;20375;-72
2022/04/10 09:13:30;;;;;;;12.52;2.30;;;8.50;99.90;;;;;;4961216;28;20340;-71
2022/04/10 09:16:20;;;;;;;12.35;1.98;;;8.60;99.90;;;;;;4978075;28;20042;-72
2022/04/10 09:18:56;;;;;;;12.10;2.00;;;8.70;99.90;;;;;;4978528;28;20047;-73
2022/04/10 09:21:30;;;;;;;8.73;1.70;;;9.10;99.90;;;;;;4962975;28;20057;-72
2022/04/10 09:24:03;;;;;;;15.70;2.55;;;9.40;99.90;;;;;;4976380;28;20038;-71
2022/04/10 09:26:47;;;;;;;9.98;1.90;;;9.50;99.90;;;;;;4965591;28;20047;-72
2022/04/10 09:29:14;;;;;;;11.20;1.90;;;9.60;99.90;;;;;;4960836;28;20475;-72
2022/04/10 09:31:40;;;;;;;8.20;1.67;;;10.00;99.90;;;;;;4976586;28;20344;-72
2022/04/10 09:34:08;;;;;;;8.98;2.10;;;10.00;99.90;;;;;;4977368;28;20360;-72
2022/04/10 09:36:38;;;;;;;6.32;1.35;;;9.90;99.90;;;;;;4980001;28;20047;-68
2022/04/10 09:39:13;;;;;;;5.05;1.65;;;9.90;99.90;;;;;;4980608;28;20412;-72
2022/04/10 09:41:40;;;;;;;6.93;1.50;;;9.80;99.90;;;;;;4977729;28;20439;-72
2022/04/10 09:44:22;;;;;;;6.43;1.65;;;9.60;99.90;;;;;;4977572;28;20460;-71
2022/04/10 09:47:17;;;;;;;7.55;1.40;;;9.40;99.90;;;;;;4977076;28;20042;-71
2022/04/10 09:49:43;;;;;;;7.05;1.70;;;9.20;99.90;;;;;;4977862;28;20054;-72
2022/04/10 09:52:15;;;;;;;4.28;1.40;;;9.10;99.90;;;;;;4997209;28;20502;-71
2022/04/10 09:54:42;;;;;;;7.90;1.67;;;9.10;99.90;;;;;;4977609;28;20542;-72
2022/04/10 09:57:16;;;;;;;9.48;1.60;;;9.20;99.90;;;;;;4995728;28;20038;-71
2022/04/10 09:59:51;;;;;;;5.50;1.58;;;9.30;99.90;;;;;;4964042;28;20046;-70
2022/04/10 10:02:19;;;;;;;11.20;1.88;;;9.50;99.90;;;;;;4996021;28;20042;-72
2022/04/10 10:04:47;;;;;;;4.70;1.20;;;9.70;99.90;;;;;;4979770;28;20042;-73
2022/04/10 10:07:16;;;;;;;7.55;1.70;;;9.80;99.90;;;;;;4996478;28;20050;-71
2022/04/10 10:09:42;;;;;;;9.98;1.90;;;10.00;99.90;;;;;;4975924;28;20074;-72
2022/04/10 10:12:09;;;;;;;8.25;2.00;;;10.20;99.90;;;;;;4994067;28;20030;-73
2022/04/10 10:14:36;;;;;;;8.85;1.70;;;10.30;99.90;;;;;;4996403;28;20042;-71
2022/04/10 10:17:04;;;;;;;8.77;1.92;;;10.40;99.90;;;;;;4996735;28;20463;-72
2022/04/10 10:19:35;;;;;;;8.75;1.90;;;10.10;99.90;;;;;;4995896;28;20061;-72
2022/04/10 10:22:06;;;;;;;14.52;2.03;;;10.10;99.90;;;;;;4996076;28;20053;-73
2022/04/10 10:24:47;;;;;;;11.45;2.00;;;10.00;99.90;;;;;;4979461;28;20061;-72
2022/04/10 10:27:45;;;;;;;5.93;1.70;;;9.80;99.90;;;;;;4995330;28;20101;-72
2022/04/10 10:30:11;;;;;;;138.20;47.70;;;9.80;99.90;;;;;;4995408;28;20447;-72
2022/04/10 10:32:43;;;;;;;8.50;1.83;;;9.70;99.90;;;;;;4962732;28;20057;-73
2022/04/10 10:35:35;;;;;;;10.15;2.20;;;9.60;99.90;;;;;;4995777;28;20060;-73
2022/04/10 10:38:01;;;;;;;6.22;1.58;;;9.70;99.90;;;;;;4996565;28;20049;-72
2022/04/10 10:40:27;;;;;;;15.50;5.85;;;9.60;99.90;;;;;;4995902;28;20062;-72
2022/04/10 10:42:58;;;;;;;8.68;3.20;;;9.70;99.90;;;;;;4996130;28;20050;-73
2022/04/10 10:45:43;;;;;;;6.00;1.75;;;9.70;99.90;;;;;;4979419;28;20058;-69
2022/04/10 10:48:38;;;;;;;8.73;1.75;;;9.70;99.90;;;;;;4996035;28;20065;-72
2022/04/10 10:51:10;;;;;;;9.02;2.00;;;9.80;99.90;;;;;;4995851;28;20048;-72
2022/04/10 10:53:55;;;;;;;13.40;2.28;;;9.60;99.90;;;;;;4996135;28;20051;-73
2022/04/10 10:56:29;;;;;;;14.13;1.92;;;9.50;99.90;;;;;;4977550;28;20074;-72
2022/04/10 10:59:15;;;;;;;15.02;2.30;;;9.70;99.90;;;;;;4978118;28;20145;-73
2022/04/10 11:01:54;;;;;;;8.70;2.08;;;10.00;99.90;;;;;;4978415;28;20055;-72
2022/04/10 11:04:20;;;;;;;8.88;1.70;;;10.40;99.90;;;;;;4978308;28;20070;-73
2022/04/10 11:06:50;;;;;;;12.70;1.90;;;10.80;99.90;;;;;;4962401;28;20046;-71
2022/04/10 11:09:30;;;;;;;9.25;1.90;;;11.10;99.90;;;;;;4994091;28;20042;-71
2022/04/10 11:11:59;;;;;;;7.28;2.08;;;11.40;99.90;;;;;;4995727;28;20054;-73
2022/04/10 11:14:45;;;;;;;8.15;2.05;;;11.50;99.90;;;;;;4995497;28;20070;-71
2022/04/10 11:17:25;;;;;;;7.78;1.67;;;11.00;99.90;;;;;;4978495;28;20463;-71
2022/04/10 11:19:57;;;;;;;15.63;2.00;;;10.60;99.90;;;;;;4976136;28;20066;-72
2022/04/10 11:22:25;;;;;;;5.67;1.60;;;10.20;99.90;;;;;;4960409;28;20055;-73
2022/04/10 11:24:57;;;;;;;5.97;1.80;;;9.90;99.90;;;;;;4977776;28;20039;-73
2022/04/10 11:27:42;;;;;;;7.00;1.70;;;9.80;99.90;;;;;;4995260;28;20069;-73
2022/04/10 11:30:12;;;;;;;10.55;2.10;;;10.00;99.90;;;;;;4994625;28;20046;-73
2022/04/10 11:32:58;;;;;;;5.53;1.70;;;10.40;99.90;;;;;;4994875;28;20125;-73
2022/04/10 11:35:30;;;;;;;13.45;3.45;;;10.60;99.90;;;;;;4995174;28;20407;-74
2022/04/10 11:38:00;;;;;;;15.30;8.00;;;10.70;99.90;;;;;;4978021;28;20120;-70
2022/04/10 11:40:29;;;;;;;15.32;3.75;;;10.90;99.90;;;;;;4994916;28;20051;-71
2022/04/10 11:42:56;;;;;;;9.13;1.85;;;11.20;99.90;;;;;;4995734;28;20042;-72
2022/04/10 11:45:28;;;;;;;10.02;2.38;;;11.40;99.90;;;;;;4977681;28;20062;-73
2022/04/10 11:47:54;;;;;;;11.18;2.08;;;11.50;99.90;;;;;;4995019;28;20439;-72
2022/04/10 11:50:21;;;;;;;6.38;2.80;;;11.40;99.90;;;;;;4995510;28;20058;-73
2022/04/10 11:53:04;;;;;;;10.30;1.77;;;11.20;99.90;;;;;;4992824;28;20486;-71
2022/04/10 11:55:33;;;;;;;6.85;2.00;;;10.80;99.90;;;;;;4984604;28;20130;-73
2022/04/10 11:57:58;;;;;;;5.63;1.58;;;10.40;99.90;;;;;;4985516;28;20560;-72
2022/04/10 12:00:25;;;;;;;8.82;2.10;;;10.40;99.90;;;;;;4988091;28;20047;-72
2022/04/10 12:02:53;;;;;;;6.93;1.58;;;10.40;99.90;;;;;;4971771;28;20061;-72
2022/04/10 12:05:19;;;;;;;5.60;1.80;;;10.40;99.90;;;;;;4977812;28;20090;-73
2022/04/10 12:07:45;;;;;;;7.10;1.65;;;10.40;99.90;;;;;;4994929;28;20116;-72
2022/04/10 12:10:10;;;;;;;7.93;1.60;;;10.70;99.90;;;;;;4978264;28;20050;-73
2022/04/10 12:12:38;;;;;;;5.90;1.58;;;11.00;99.90;;;;;;4994894;28;20045;-73
2022/04/10 12:15:15;;;;;;;5.68;1.95;;;11.10;99.90;;;;;;4995411;28;20133;-73
2022/04/10 12:17:41;;;;;;;7.10;2.00;;;11.20;99.90;;;;;;4995864;28;20100;-70
2022/04/10 12:20:07;;;;;;;6.55;1.40;;;10.90;99.90;;;;;;4974642;28;20050;-70
2022/04/10 12:22:32;;;;;;;7.97;1.40;;;10.70;99.90;;;;;;4995048;28;20494;-72
2022/04/10 12:25:00;;;;;;;7.50;2.25;;;10.60;99.90;;;;;;4995048;28;20090;-70
2022/04/10 12:27:26;;;;;;;9.52;2.60;;;10.70;99.90;;;;;;4989222;28;20467;-73
2022/04/10 12:29:53;;;;;;;14.63;6.88;;;10.90;99.90;;;;;;4975437;28;20061;-72
2022/04/10 12:32:19;;;;;;;7.95;2.90;;;10.90;99.90;;;;;;4958757;28;20121;-74
2022/04/10 12:34:45;;;;;;;6.95;2.45;;;11.00;99.90;;;;;;4975469;28;20045;-71
2022/04/10 12:37:13;;;;;;;8.57;1.90;;;11.00;99.90;;;;;;4975192;28;20047;-73
2022/04/10 12:39:39;;;;;;;7.43;2.33;;;10.90;99.90;;;;;;4975717;28;20066;-72
2022/04/10 12:42:22;;;;;;;10.55;6.80;;;11.10;99.90;;;;;;4975387;28;20050;-72
2022/04/10 12:44:56;;;;;;;7.18;1.60;;;11.30;99.90;;;;;;4983444;28;20042;-72
2022/04/10 12:47:46;;;;;;;6.47;2.10;;;11.50;99.90;;;;;;4978826;28;20042;-73
2022/04/10 12:50:19;;;;;;;9.02;2.50;;;11.50;99.90;;;;;;4990884;28;20399;-72
2022/04/10 12:52:46;;;;;;;10.13;2.28;;;11.20;99.90;;;;;;4997936;28;20030;-72
2022/04/10 12:55:25;;;;;;;9.02;3.13;;;11.00;99.90;;;;;;4998091;28;20050;-71
2022/04/10 12:57:56;;;;;;;8.88;1.70;;;10.80;99.90;;;;;;4981227;28;20050;-74
2022/04/10 13:00:24;;;;;;;5.25;1.30;;;10.90;99.90;;;;;;4997776;28;20149;-71